Time;durP1;ratioP1;P1;durP2;ratioP2;P2;SDS_P1;SDS_P2;PMS_P1;PMS_P2;Temp;Humidity;BMP_temperature;BMP_pressure;BME280_temperature;BME280_humidity;BME280_pressure;Samples;Min_cycle;Max_cycle;Signal;HPM_P1;HPM_P2
2022/08/07 00:00:43;;;;;;;6.50;4.65;;;;;;;26.47;46.41;99606.97;5114055;28;20434;-71
2022/08/07 00:03:09;;;;;;;12.13;5.32;;;;;;;26.46;46.49;99602.59;5113789;28;20087;-70
2022/08/07 00:05:36;;;;;;;8.73;5.57;;;;;;;26.42;46.50;99604.09;5113349;28;20483;-71
2022/08/07 00:08:01;;;;;;;8.38;4.93;;;;;;;26.40;46.34;99603.47;5113689;28;20040;-68
2022/08/07 00:10:28;;;;;;;10.85;4.47;;;;;;;26.41;46.39;99605.16;5113042;28;20035;-69
2022/08/07 00:12:54;;;;;;;9.32;5.03;;;;;;;26.41;46.61;99610.56;5114420;28;20039;-70
2022/08/07 00:15:19;;;;;;;8.70;4.65;;;;;;;26.42;46.33;99606.81;5114346;28;20035;-70
2022/08/07 00:17:44;;;;;;;6.10;4.63;;;;;;;26.42;46.32;99598.66;5113277;28;20039;-71
2022/08/07 00:20:10;;;;;;;7.43;4.45;;;;;;;26.40;46.13;99597.25;5112535;28;20023;-69
2022/08/07 00:22:35;;;;;;;6.28;4.65;;;;;;;26.38;46.14;99605.63;5113734;28;20039;-71
2022/08/07 00:25:05;;;;;;;6.78;4.03;;;;;;;26.38;46.25;99593.91;5113583;28;20406;-71
2022/08/07 00:27:31;;;;;;;6.43;4.65;;;;;;;26.38;46.12;99602.06;5113004;28;20036;-71
2022/08/07 00:29:57;;;;;;;4.00;3.58;;;;;;;26.33;45.99;99592.69;5113580;28;20016;-70
2022/08/07 00:32:22;;;;;;;8.02;5.07;;;;;;;26.34;46.25;99590.84;5113119;28;20035;-71
2022/08/07 00:34:48;;;;;;;6.57;4.32;;;;;;;26.32;46.22;99595.66;5112888;28;20031;-70
2022/08/07 00:37:16;;;;;;;12.07;5.20;;;;;;;26.32;46.17;99590.22;5113982;28;20175;-71
2022/08/07 00:39:42;;;;;;;6.65;4.20;;;;;;;26.34;46.27;99596.25;5113255;28;20024;-71
2022/08/07 00:42:08;;;;;;;4.80;3.95;;;;;;;26.31;46.14;99583.13;5112179;28;20049;-69
2022/08/07 00:44:34;;;;;;;5.78;4.07;;;;;;;26.32;46.14;99590.22;5113047;28;20379;-70
2022/08/07 00:47:05;;;;;;;6.07;4.40;;;;;;;26.30;46.08;99586.91;5112658;28;20110;-71
2022/08/07 00:49:30;;;;;;;7.30;4.97;;;;;;;26.27;46.18;99587.34;5097112;28;20030;-70
2022/08/07 00:51:57;;;;;;;6.60;3.72;;;;;;;26.28;45.94;99581.72;5107183;28;20464;-70
2022/08/07 00:54:22;;;;;;;6.85;4.50;;;;;;;26.28;46.00;99584.41;5112722;28;20028;-70
2022/08/07 00:56:49;;;;;;;5.50;3.63;;;;;;;26.28;45.93;99580.88;5112422;28;20444;-71
2022/08/07 00:59:15;;;;;;;7.43;4.20;;;;;;;26.28;45.99;99589.84;5112598;28;20084;-71
2022/08/07 01:01:41;;;;;;;5.55;4.22;;;;;;;26.26;46.16;99586.53;5113294;28;20032;-71
2022/08/07 01:04:07;;;;;;;9.45;4.45;;;;;;;26.26;45.52;99582.97;5113013;28;20062;-70
2022/08/07 01:06:33;;;;;;;7.38;3.67;;;;;;;26.23;45.96;99586.16;5113223;28;20432;-71
2022/08/07 01:09:00;;;;;;;7.78;4.30;;;;;;;26.23;46.04;99583.44;5112525;28;20034;-70
2022/08/07 01:11:27;;;;;;;3.85;3.28;;;;;;;26.23;45.97;99589.69;5112379;28;20071;-71
2022/08/07 01:13:52;;;;;;;7.88;3.67;;;;;;;26.23;45.83;99594.28;5092869;28;20479;-71
2022/08/07 01:16:18;;;;;;;5.90;3.63;;;;;;;26.22;46.15;99596.16;5100621;28;20049;-71
2022/08/07 01:18:44;;;;;;;6.00;4.18;;;;;;;26.18;45.73;99590.34;5112704;28;20036;-71
2022/08/07 01:21:14;;;;;;;5.35;4.10;;;;;;;26.14;45.89;99594.56;5112291;28;20032;-70
2022/08/07 01:23:46;;;;;;;10.52;4.10;;;;;;;26.16;45.93;99592.44;5113084;28;20401;-70
2022/08/07 01:26:13;;;;;;;8.15;4.30;;;;;;;26.17;45.75;99588.69;5113078;28;20081;-70
2022/08/07 01:28:41;;;;;;;4.82;3.45;;;;;;;26.17;45.63;99588.69;5112309;28;20020;-70
2022/08/07 01:31:08;;;;;;;4.80;3.97;;;;;;;26.18;45.61;99586.78;5114257;28;20039;-71
2022/08/07 01:33:34;;;;;;;9.65;4.57;;;;;;;26.17;45.49;99590.59;5116895;28;20106;-70
2022/08/07 01:36:01;;;;;;;7.53;4.18;;;;;;;26.14;45.48;99591.03;5116547;28;20028;-71
2022/08/07 01:38:27;;;;;;;4.05;3.53;;;;;;;26.12;45.88;99588.50;5104620;28;20028;-71
2022/08/07 01:40:58;;;;;;;8.68;3.90;;;;;;;26.12;45.85;99588.50;5078945;28;20111;-71
2022/08/07 01:43:25;;;;;;;4.43;3.50;;;;;;;26.10;45.78;99587.88;5096762;28;20032;-70
2022/08/07 01:45:53;;;;;;;4.78;3.80;;;;;;;26.06;45.78;99581.25;5098295;28;20032;-71
2022/08/07 01:48:19;;;;;;;4.20;3.40;;;;;;;26.07;45.86;99582.91;5115652;28;20030;-70
2022/08/07 01:51:17;;;;;;;4.50;3.63;;;;;;;26.04;45.77;99584.16;5116434;28;20478;-70
2022/08/07 01:53:46;;;;;;;5.10;3.75;;;;;;;26.05;45.83;99585.81;5101660;28;20036;-70
2022/08/07 01:56:16;;;;;;;4.80;3.60;;;;;;;26.03;46.07;99579.78;5116538;28;20034;-70
2022/08/07 01:58:48;;;;;;;7.85;3.85;;;;;;;25.99;46.06;99581.31;5115838;28;20074;-70
2022/08/07 02:01:22;;;;;;;6.50;3.50;;;;;;;25.96;46.18;99583.63;5117794;27;20505;-70
2022/08/07 02:03:54;;;;;;;8.75;4.25;;;;;;;25.94;45.99;99585.75;5136903;27;20023;-70
2022/08/07 02:06:22;;;;;;;5.40;3.47;;;;;;;25.92;46.04;99583.22;5129601;27;20028;-70
2022/08/07 02:08:49;;;;;;;5.57;3.38;;;;;;;25.94;46.13;99580.31;5118025;27;20115;-71
2022/08/07 02:11:14;;;;;;;7.63;4.00;;;;;;;25.92;46.18;99580.53;5122521;27;20031;-70
2022/08/07 02:13:43;;;;;;;8.45;4.03;;;;;;;25.90;45.94;99578.03;5136990;27;20033;-70
2022/08/07 02:16:10;;;;;;;7.18;4.00;;;;;;;25.85;46.17;99575.16;5116364;27;20035;-71
2022/08/07 02:18:37;;;;;;;6.50;3.67;;;;;;;25.83;46.14;99571.00;5115757;28;20123;-70
2022/08/07 02:21:05;;;;;;;5.68;4.50;;;;;;;25.81;46.24;99560.38;5117429;27;20035;-70
2022/08/07 02:23:35;;;;;;;3.60;3.30;;;;;;;25.78;46.40;99565.41;5121791;27;20054;-71
2022/08/07 02:26:04;;;;;;;5.10;4.10;;;;;;;25.74;46.41;99567.75;5115959;28;20122;-71
2022/08/07 02:28:30;;;;;;;6.75;4.40;;;;;;;25.72;46.41;99570.69;5115301;28;20043;-71
2022/08/07 02:30:58;;;;;;;5.47;3.50;;;;;;;25.72;46.58;99569.84;5116857;27;20055;-70
2022/08/07 02:33:28;;;;;;;6.15;4.25;;;;;;;25.72;46.77;99569.84;5116159;28;20039;-70
2022/08/07 02:35:55;;;;;;;5.78;3.60;;;;;;;25.73;46.76;99566.09;5115733;28;20474;-70
2022/08/07 02:38:25;;;;;;;4.45;3.35;;;;;;;25.76;46.83;99571.06;5122270;27;20039;-70
2022/08/07 02:40:52;;;;;;;5.57;3.40;;;;;;;25.74;46.98;99568.56;5113721;28;20027;-69
2022/08/07 02:43:18;;;;;;;5.80;3.85;;;;;;;25.73;46.80;99571.50;5115050;27;20379;-69
2022/08/07 02:45:46;;;;;;;6.88;3.25;;;;;;;25.70;46.99;99574.66;5115233;28;20092;-70
2022/08/07 02:48:12;;;;;;;6.15;3.70;;;;;;;25.69;47.22;99564.84;5115570;28;20032;-70
2022/08/07 02:50:41;;;;;;;6.38;3.40;;;;;;;25.70;47.20;99577.34;5115476;28;20114;-71
2022/08/07 02:53:11;;;;;;;8.60;3.95;;;;;;;25.68;47.42;99568.59;5123994;27;20031;-70
2022/08/07 02:55:42;;;;;;;4.88;3.78;;;;;;;25.66;47.43;99578.88;5135881;27;20080;-70
2022/08/07 02:58:12;;;;;;;7.10;4.10;;;;;;;25.67;47.66;99566.94;5135071;27;20047;-70
2022/08/07 03:00:40;;;;;;;5.90;3.80;;;;;;;25.68;47.28;99574.03;5113369;28;20032;-70
2022/08/07 03:03:09;;;;;;;8.07;3.40;;;;;;;25.68;47.32;99579.44;5115701;28;20499;-70
2022/08/07 03:05:36;;;;;;;5.97;3.42;;;;;;;25.69;47.25;99576.53;5115144;28;20031;-71
2022/08/07 03:08:04;;;;;;;5.57;3.22;;;;;;;25.69;47.24;99573.84;5122497;27;20023;-70
2022/08/07 03:10:31;;;;;;;4.75;3.47;;;;;;;25.71;47.36;99577.16;5117654;27;20042;-70
2022/08/07 03:12:57;;;;;;;4.35;3.35;;;;;;;25.77;47.08;99580.00;5115077;28;20161;-70
2022/08/07 03:15:23;;;;;;;7.05;3.60;;;;;;;25.78;46.77;99579.81;5115318;28;20039;-70
2022/08/07 03:17:49;;;;;;;8.30;3.80;;;;;;;25.80;46.99;99574.16;5121426;27;20036;-70
2022/08/07 03:20:15;;;;;;;7.47;3.30;;;;;;;25.82;46.82;99586.44;5135595;27;20035;-70
2022/08/07 03:22:42;;;;;;;5.20;3.90;;;;;;;25.92;46.64;99579.72;5135381;27;20402;-70
2022/08/07 03:25:08;;;;;;;4.68;3.60;;;;;;;25.97;46.73;99583.41;5135729;27;20033;-70
2022/08/07 03:27:34;;;;;;;3.95;3.20;;;;;;;26.03;46.45;99582.50;5118187;27;20069;-70
2022/08/07 03:30:00;;;;;;;6.18;3.53;;;;;;;26.11;46.21;99578.72;5115544;27;20031;-70
2022/08/07 03:32:31;;;;;;;9.38;3.63;;;;;;;26.22;45.96;99573.63;5115808;27;20104;-70
2022/08/07 03:35:00;;;;;;;8.77;3.75;;;;;;;26.27;45.78;99574.63;5114929;28;20031;-70
2022/08/07 03:37:28;;;;;;;6.00;3.40;;;;;;;26.33;45.68;99581.84;5118639;27;20046;-70
2022/08/07 03:39:54;;;;;;;4.95;3.30;;;;;;;26.35;45.56;99579.75;5115049;28;20126;-70
2022/08/07 03:42:19;;;;;;;4.95;3.30;;;;;;;26.40;45.40;99581.78;5113901;28;20110;-70
2022/08/07 03:44:46;;;;;;;4.70;3.13;;;;;;;26.46;45.17;99580.91;5114813;28;20047;-70
2022/08/07 03:47:12;;;;;;;7.90;3.50;;;;;;;26.46;45.07;99578.19;5115487;27;20023;-71
2022/08/07 03:49:38;;;;;;;6.32;3.33;;;;;;;26.48;45.28;99575.22;5111622;28;20582;-70
2022/08/07 03:52:06;;;;;;;8.48;3.25;;;;;;;26.53;44.99;99574.59;5114683;28;20031;-70
2022/08/07 03:54:33;;;;;;;6.30;4.40;;;;;;;26.58;44.81;99570.13;5135102;27;20513;-70
2022/08/07 03:57:00;;;;;;;7.53;3.63;;;;;;;26.64;44.82;99568.41;5124132;27;20062;-70
2022/08/07 03:59:26;;;;;;;7.20;3.17;;;;;;;26.68;44.68;99577.75;5113719;28;20044;-71
2022/08/07 04:01:54;;;;;;;8.93;4.03;;;;;;;26.69;44.92;99563.09;5116045;27;20076;-70
2022/08/07 04:04:21;;;;;;;9.90;3.90;;;;;;;26.70;44.97;99572.91;5113695;28;20142;-70
2022/08/07 04:06:47;;;;;;;15.73;3.58;;;;;;;26.66;44.86;99572.53;5132389;27;20031;-69
2022/08/07 04:09:13;;;;;;;4.80;3.20;;;;;;;26.64;45.16;99565.69;5134509;27;20160;-70
2022/08/07 04:11:39;;;;;;;10.25;3.45;;;;;;;26.59;45.30;99570.94;5123884;27;20031;-70
2022/08/07 04:14:05;;;;;;;9.75;3.67;;;;;;;26.57;45.31;99575.78;5113489;28;20027;-70
2022/08/07 04:16:31;;;;;;;6.32;3.40;;;;;;;26.57;45.00;99583.91;5115014;27;20031;-70
2022/08/07 04:18:57;;;;;;;5.30;3.67;;;;;;;26.56;45.47;99582.25;5113747;28;20083;-70
2022/08/07 04:21:22;;;;;;;8.52;4.20;;;;;;;26.54;45.39;99587.09;5113983;28;20035;-70
2022/08/07 04:23:49;;;;;;;6.68;3.92;;;;;;;26.58;45.18;99578.28;5114157;28;20034;-69
2022/08/07 04:26:15;;;;;;;4.03;3.25;;;;;;;26.62;45.16;99575.94;5122145;27;20402;-70
2022/08/07 04:28:41;;;;;;;8.50;3.92;;;;;;;26.63;44.84;99574.88;5113432;28;20027;-70
2022/08/07 04:31:07;;;;;;;6.82;3.72;;;;;;;26.67;45.23;99573.38;5112500;28;20110;-71
2022/08/07 04:33:35;;;;;;;8.45;4.18;;;;;;;26.71;44.84;99576.47;5113332;28;21491;-70
2022/08/07 04:36:01;;;;;;;6.03;3.03;;;;;;;26.74;44.80;99576.84;5112686;28;20042;-70
2022/08/07 04:38:27;;;;;;;6.85;3.67;;;;;;;26.74;44.85;99576.03;5104383;28;20056;-69
2022/08/07 04:40:52;;;;;;;6.60;3.65;;;;;;;26.81;44.85;99584.94;5099566;28;20067;-69
2022/08/07 04:43:21;;;;;;;8.90;3.72;;;;;;;26.98;44.54;99582.44;5113929;28;20054;-70
2022/08/07 04:46:02;;;;;;;9.20;3.45;;;;;;;27.16;44.16;99572.59;5112586;28;20035;-70
2022/08/07 04:49:04;;;;;;;5.93;3.83;;;;;;;27.48;43.54;99584.09;5104511;28;20032;-70
2022/08/07 04:51:46;;;;;;;9.57;3.38;;;;;;;27.84;42.83;99581.47;5050396;28;20178;-70
2022/08/07 04:54:23;;;;;;;7.30;3.53;;;;;;;28.11;42.62;99581.03;5114181;28;20375;-70
2022/08/07 04:57:14;;;;;;;6.53;3.20;;;;;;;28.38;41.98;99586.00;5112210;28;20083;-71
2022/08/07 04:59:49;;;;;;;5.20;3.13;;;;;;;28.59;41.70;99590.84;5098664;28;20525;-71
2022/08/07 05:02:26;;;;;;;9.13;4.20;;;;;;;28.80;41.13;99594.03;5129288;27;20450;-71
2022/08/07 05:05:11;;;;;;;8.65;3.60;;;;;;;28.99;41.04;99593.88;5133440;27;20039;-69
2022/08/07 05:07:41;;;;;;;13.35;3.90;;;;;;;29.13;40.46;99594.41;5118966;27;20031;-69
2022/08/07 05:10:15;;;;;;;5.50;3.47;;;;;;;29.24;40.70;99588.91;5093310;28;20032;-68
2022/08/07 05:12:53;;;;;;;11.55;3.85;;;;;;;29.39;40.43;99593.03;5127433;28;20027;-68
2022/08/07 05:15:26;;;;;;;8.32;3.50;;;;;;;29.48;40.12;99596.19;5133428;28;20035;-68
2022/08/07 05:18:19;;;;;;;9.85;3.67;;;;;;;29.58;39.60;99593.63;5119759;28;20023;-68
2022/08/07 05:20:48;;;;;;;8.13;3.45;;;;;;;29.71;39.53;99595.22;5112791;28;20390;-68
2022/08/07 05:23:21;;;;;;;8.80;3.72;;;;;;;29.79;39.36;99588.53;5095784;28;20067;-69
2022/08/07 05:25:48;;;;;;;7.13;3.50;;;;;;;29.88;39.09;99588.97;5113599;28;20027;-69
2022/08/07 05:28:15;;;;;;;7.47;3.65;;;;;;;29.95;38.90;99584.19;5113482;28;20071;-70
2022/08/07 05:30:43;;;;;;;5.32;3.85;;;;;;;29.99;38.66;99586.19;5112652;28;20066;-69
2022/08/07 05:33:12;;;;;;;9.98;3.35;;;;;;;30.03;38.74;99586.53;5113026;28;20046;-70
2022/08/07 05:35:39;;;;;;;5.55;3.42;;;;;;;30.06;38.73;99588.75;5114075;28;20039;-70
2022/08/07 05:38:06;;;;;;;7.53;3.60;;;;;;;30.11;38.75;99575.19;5112082;28;20077;-71
2022/08/07 05:40:36;;;;;;;5.45;3.53;;;;;;;30.16;38.64;99584.53;5112738;28;20072;-70
2022/08/07 05:43:02;;;;;;;9.25;3.25;;;;;;;30.21;38.48;99593.59;5112043;28;20035;-70
2022/08/07 05:45:29;;;;;;;4.93;3.17;;;;;;;30.26;38.27;99587.41;5115154;28;20094;-70
2022/08/07 05:47:54;;;;;;;6.22;3.40;;;;;;;30.29;38.27;99589.63;5133250;28;20038;-70
2022/08/07 05:50:22;;;;;;;7.32;3.70;;;;;;;30.33;38.30;99590.78;5118809;28;20038;-70
2022/08/07 05:52:47;;;;;;;7.68;2.90;;;;;;;30.37;38.42;99591.09;5118811;28;20043;-70
2022/08/07 05:55:13;;;;;;;6.63;3.33;;;;;;;30.20;38.40;99600.13;5133045;28;20038;-70
2022/08/07 05:57:40;;;;;;;7.80;3.78;;;;;;;29.90;39.14;99595.81;5131461;28;20051;-70
2022/08/07 06:00:09;;;;;;;10.60;3.72;;;;;;;29.61;39.39;99589.63;5121876;28;20039;-71
2022/08/07 06:02:35;;;;;;;8.55;3.38;;;;;;;29.41;39.92;99590.06;5113042;28;20070;-71
2022/08/07 06:05:07;;;;;;;9.20;3.70;;;;;;;29.24;40.49;99586.19;5112477;28;20398;-70
2022/08/07 06:07:34;;;;;;;7.60;4.07;;;;;;;29.14;40.93;99602.34;5112462;28;20038;-71
2022/08/07 06:10:00;;;;;;;7.25;3.45;;;;;;;29.05;40.76;99601.06;5112797;28;20028;-70
2022/08/07 06:12:26;;;;;;;10.50;3.67;;;;;;;28.97;40.89;99591.38;5114006;28;20035;-70
2022/08/07 06:14:53;;;;;;;7.93;3.47;;;;;;;28.95;40.89;99598.97;5112690;28;20028;-71
2022/08/07 06:17:19;;;;;;;9.55;4.03;;;;;;;28.92;41.35;99602.19;5111980;28;20054;-71
2022/08/07 06:19:46;;;;;;;15.57;4.03;;;;;;;28.87;41.15;99596.63;5116662;28;20186;-70
2022/08/07 06:22:14;;;;;;;9.90;4.03;;;;;;;28.79;41.72;99589.66;5118112;27;20490;-69
2022/08/07 06:24:40;;;;;;;8.52;3.53;;;;;;;28.75;41.46;99604.78;5136659;27;20027;-70
2022/08/07 06:27:06;;;;;;;15.13;4.43;;;;;;;28.72;41.96;99600.63;5128222;27;20032;-71
2022/08/07 06:29:33;;;;;;;5.90;3.72;;;;;;;28.68;42.08;99596.72;5114719;28;20023;-70
2022/08/07 06:31:59;;;;;;;11.32;4.28;;;;;;;28.63;42.22;99607.53;5115792;28;20557;-70
2022/08/07 06:34:25;;;;;;;14.40;4.65;;;;;;;28.58;42.43;99602.81;5115881;28;20042;-70
2022/08/07 06:36:51;;;;;;;8.13;4.00;;;;;;;28.52;42.88;99613.81;5118245;27;20027;-71
2022/08/07 06:39:17;;;;;;;11.60;4.72;;;;;;;28.45;43.26;99616.66;5115818;28;20038;-71
2022/08/07 06:41:51;;;;;;;8.13;4.25;;;;;;;28.44;43.22;99609.56;5115922;27;20410;-71
2022/08/07 06:44:18;;;;;;;7.35;4.32;;;;;;;28.43;43.74;99616.06;5115955;28;20125;-70
2022/08/07 06:46:44;;;;;;;8.45;4.22;;;;;;;28.42;44.36;99614.41;5114916;28;20123;-70
2022/08/07 06:49:10;;;;;;;9.27;4.22;;;;;;;28.40;44.29;99619.25;5106184;28;20048;-70
2022/08/07 06:51:37;;;;;;;12.23;4.85;;;;;;;28.35;44.23;99611.81;5105134;27;20039;-70
2022/08/07 06:54:04;;;;;;;13.90;4.47;;;;;;;28.31;44.26;99616.06;5095105;28;20512;-70
2022/08/07 06:56:45;;;;;;;8.77;4.38;;;;;;;28.25;44.29;99617.84;5113042;27;20065;-71
2022/08/07 06:59:18;;;;;;;13.00;4.47;;;;;;;28.19;44.61;99609.78;5132276;27;20118;-71
2022/08/07 07:01:45;;;;;;;7.88;4.22;;;;;;;28.14;45.09;99607.78;5114415;28;20042;-70
2022/08/07 07:04:12;;;;;;;10.57;5.03;;;;;;;28.09;45.13;99608.47;5115301;28;20088;-70
2022/08/07 07:06:38;;;;;;;11.88;4.30;;;;;;;28.05;45.70;99615.44;5115294;27;20031;-71
2022/08/07 07:09:23;;;;;;;11.45;4.50;;;;;;;28.00;45.51;99615.28;5115525;28;20118;-70
2022/08/07 07:12:07;;;;;;;10.40;4.63;;;;;;;27.95;45.98;99618.72;5115393;27;20106;-71
2022/08/07 07:15:12;;;;;;;8.02;4.95;;;;;;;27.94;46.21;99616.25;5115287;28;20039;-71
2022/08/07 07:17:56;;;;;;;13.65;4.93;;;;;;;27.96;46.57;99609.50;5114712;28;20036;-70
2022/08/07 07:20:26;;;;;;;18.92;5.50;;;;;;;28.01;46.45;99625.91;5115321;28;20059;-70
2022/08/07 07:22:53;;;;;;;12.60;4.70;;;;;;;28.07;45.90;99623.34;5115882;27;20163;-70
2022/08/07 07:25:19;;;;;;;12.45;4.07;;;;;;;28.10;45.97;99614.75;5114541;27;20046;-71
2022/08/07 07:28:11;;;;;;;8.55;4.55;;;;;;;28.15;45.77;99618.41;5116419;27;20031;-71
2022/08/07 07:30:40;;;;;;;12.73;4.78;;;;;;;28.17;45.68;99616.28;5114397;28;20027;-71
2022/08/07 07:33:11;;;;;;;10.27;4.53;;;;;;;28.23;45.38;99611.78;5094643;28;20055;-70
2022/08/07 07:35:38;;;;;;;5.38;3.63;;;;;;;28.25;45.07;99612.41;5095980;28;20036;-71
2022/08/07 07:38:06;;;;;;;8.13;4.00;;;;;;;28.30;44.83;99609.81;5108389;27;20038;-71
2022/08/07 07:40:33;;;;;;;14.65;4.70;;;;;;;28.35;44.62;99606.38;5095530;28;20165;-71
2022/08/07 07:43:02;;;;;;;13.25;5.20;;;;;;;28.39;45.03;99609.44;5114634;28;20083;-68
2022/08/07 07:45:29;;;;;;;10.48;5.10;;;;;;;28.40;44.52;99602.94;5126710;27;20035;-68
2022/08/07 07:47:57;;;;;;;9.13;4.47;;;;;;;28.44;44.24;99609.56;5115596;27;20048;-68
2022/08/07 07:50:24;;;;;;;9.38;4.32;;;;;;;28.47;44.14;99600.91;5114725;27;20027;-69
2022/08/07 07:52:52;;;;;;;7.15;4.28;;;;;;;28.50;44.13;99605.88;5122008;27;20405;-71
2022/08/07 07:55:19;;;;;;;10.13;4.10;;;;;;;28.52;44.00;99592.03;5135035;27;20534;-71
2022/08/07 07:57:48;;;;;;;5.95;3.70;;;;;;;28.56;43.58;99591.31;5119066;27;20055;-71
2022/08/07 08:00:14;;;;;;;6.15;3.80;;;;;;;28.58;43.97;99594.63;5113704;28;20084;-68
2022/08/07 08:02:42;;;;;;;12.07;4.68;;;;;;;28.62;44.32;99595.78;5117921;27;20047;-68
2022/08/07 08:05:10;;;;;;;7.97;3.67;;;;;;;28.62;43.99;99594.97;5114375;28;20458;-68
2022/08/07 08:07:37;;;;;;;5.32;3.78;;;;;;;28.65;43.48;99599.09;5113951;28;20035;-68
2022/08/07 08:10:04;;;;;;;5.72;3.83;;;;;;;28.65;43.59;99602.69;5114505;28;20027;-69
2022/08/07 08:12:32;;;;;;;5.05;3.83;;;;;;;28.66;43.53;99596.16;5113050;27;20043;-70
2022/08/07 08:14:58;;;;;;;12.48;4.13;;;;;;;28.68;43.64;99604.91;5113306;28;20039;-70
2022/08/07 08:17:25;;;;;;;7.47;3.53;;;;;;;28.70;43.63;99601.97;5126757;27;20046;-70
2022/08/07 08:19:55;;;;;;;9.38;4.88;;;;;;;28.69;43.23;99600.28;5134586;27;20125;-70
2022/08/07 08:27:55;;;;;;;7.20;3.70;;;;;;;28.71;43.18;99584.56;5101774;28;20394;-70
2022/08/07 08:30:22;;;;;;;5.60;3.72;;;;;;;28.72;43.19;99595.19;5104054;27;20095;-70
2022/08/07 08:32:52;;;;;;;8.68;3.63;;;;;;;28.72;43.77;99581.56;5113390;28;20062;-70
2022/08/07 08:35:22;;;;;;;10.75;4.28;;;;;;;28.71;43.42;99588.09;5113366;28;20440;-70
2022/08/07 08:37:54;;;;;;;5.75;4.22;;;;;;;28.72;43.46;99588.94;5120848;27;20122;-69
2022/08/07 08:40:42;;;;;;;5.78;4.05;;;;;;;28.73;43.92;99590.63;5117450;27;20031;-70
2022/08/07 08:43:16;;;;;;;6.18;4.22;;;;;;;28.72;43.74;99578.03;5113931;28;20394;-70
2022/08/07 08:46:05;;;;;;;9.25;4.50;;;;;;;28.72;43.75;99575.31;5113454;28;20031;-69
2022/08/07 08:48:49;;;;;;;7.63;3.80;;;;;;;28.73;43.80;99574.28;5096786;28;20032;-70
2022/08/07 08:51:29;;;;;;;9.55;4.05;;;;;;;28.73;43.97;99560.69;5112611;28;20151;-70
2022/08/07 08:54:09;;;;;;;7.82;4.60;;;;;;;28.71;43.82;99560.06;5113053;28;20394;-70
2022/08/07 08:56:45;;;;;;;8.50;4.28;;;;;;;28.73;44.07;99560.69;5107859;28;20051;-70
2022/08/07 08:59:22;;;;;;;9.13;3.65;;;;;;;28.73;44.07;99547.88;5113016;28;20027;-70
2022/08/07 09:02:14;;;;;;;10.13;4.47;;;;;;;28.76;43.70;99557.44;5112168;28;20031;-69
2022/08/07 09:04:51;;;;;;;4.35;3.58;;;;;;;28.77;43.25;99559.09;5112577;28;20084;-70
2022/08/07 09:07:50;;;;;;;6.82;2.90;;;;;;;28.77;42.16;99557.22;5111914;28;20114;-69
2022/08/07 09:10:26;;;;;;;8.65;3.15;;;;;;;28.80;41.32;99564.06;5112756;28;20122;-70
2022/08/07 09:13:12;;;;;;;6.25;2.72;;;;;;;28.83;42.08;99566.31;5112954;28;20028;-69
2022/08/07 09:15:50;;;;;;;5.25;3.40;;;;;;;28.84;42.06;99564.41;5112438;28;20486;-69
2022/08/07 09:18:21;;;;;;;8.23;3.17;;;;;;;28.86;41.71;99562.28;5093442;28;20032;-69
2022/08/07 09:21:11;;;;;;;5.75;3.45;;;;;;;28.87;41.83;99553.88;5109250;28;20042;-70
2022/08/07 09:24:18;;;;;;;13.37;3.43;;;;;;;28.86;41.65;99549.50;5112640;28;20401;-70
2022/08/07 09:26:52;;;;;;;10.25;3.60;;;;;;;28.87;41.27;99556.59;5109983;28;20034;-70
2022/08/07 09:29:37;;;;;;;7.10;3.22;;;;;;;28.90;40.83;99553.38;5112569;28;20062;-70
2022/08/07 09:32:32;;;;;;;6.47;2.70;;;;;;;28.91;40.88;99560.47;5112147;28;20067;-70
2022/08/07 09:35:11;;;;;;;5.28;3.60;;;;;;;28.91;41.01;99548.78;5112077;28;20067;-70
2022/08/07 09:38:06;;;;;;;7.57;3.00;;;;;;;28.91;40.83;99549.59;5111897;28;20066;-70
2022/08/07 09:40:57;;;;;;;6.90;3.30;;;;;;;28.91;41.14;99538.69;5093586;28;20514;-71
2022/08/07 09:43:59;;;;;;;5.80;3.72;;;;;;;28.92;41.26;99537.63;5112001;28;20032;-71
2022/08/07 09:46:49;;;;;;;4.75;2.97;;;;;;;28.92;41.12;99537.63;5112851;28;20035;-70
2022/08/07 09:49:56;;;;;;;4.40;3.17;;;;;;;28.92;41.46;99540.34;5104249;28;20020;-70
2022/08/07 09:52:39;;;;;;;9.15;3.28;;;;;;;28.91;41.39;99532.44;5094462;28;20265;-70
2022/08/07 09:55:30;;;;;;;10.40;3.50;;;;;;;28.93;41.43;99527.56;5101809;28;20034;-71
2022/08/07 09:58:22;;;;;;;10.05;3.72;;;;;;;28.94;41.49;99531.97;5113500;28;20124;-70
2022/08/07 10:01:21;;;;;;;4.53;3.28;;;;;;;28.93;41.38;99522.13;5068166;28;20044;-70
2022/08/07 10:03:55;;;;;;;4.53;3.25;;;;;;;28.92;41.37;99512.31;5096455;28;20028;-71
2022/08/07 10:06:57;;;;;;;4.55;3.28;;;;;;;28.93;41.71;99522.13;5101751;28;20032;-71
2022/08/07 10:09:46;;;;;;;5.00;3.10;;;;;;;28.92;41.43;99507.66;5115665;28;20029;-70
2022/08/07 10:12:44;;;;;;;5.30;3.28;;;;;;;28.93;41.91;99517.50;5096009;28;20110;-70
2022/08/07 10:15:46;;;;;;;8.82;2.97;;;;;;;28.91;41.60;99519.63;5096280;28;20106;-70
2022/08/07 10:18:21;;;;;;;4.80;3.45;;;;;;;28.92;41.74;99507.66;5013765;28;20064;-70
2022/08/07 10:21:09;;;;;;;6.25;3.10;;;;;;;28.93;41.12;99506.59;5088485;28;20040;-71
2022/08/07 10:24:14;;;;;;;6.53;3.35;;;;;;;28.95;41.18;99508.25;5115888;28;20398;-71
2022/08/07 10:27:16;;;;;;;5.97;3.20;;;;;;;28.94;41.02;99504.72;5095802;28;20027;-71
2022/08/07 10:30:05;;;;;;;3.90;3.40;;;;;;;28.96;41.18;99516.22;5081748;28;20036;-70
2022/08/07 10:32:40;;;;;;;5.68;3.35;;;;;;;28.97;41.65;99506.13;5100444;28;20547;-71
2022/08/07 10:35:28;;;;;;;6.30;2.78;;;;;;;28.98;41.39;99503.16;5114963;28;20541;-71
2022/08/07 10:38:04;;;;;;;5.30;3.08;;;;;;;28.98;41.72;99505.88;5115364;28;20027;-71
2022/08/07 10:40:37;;;;;;;5.80;3.10;;;;;;;28.99;41.21;99501.25;5115498;28;20024;-71
2022/08/07 10:43:20;;;;;;;5.45;3.17;;;;;;;29.00;41.58;99497.47;5115721;28;20031;-71
2022/08/07 10:45:49;;;;;;;4.28;3.25;;;;;;;29.01;41.83;99493.69;5115549;28;20512;-72
2022/08/07 10:48:51;;;;;;;3.33;3.03;;;;;;;29.03;41.32;99494.28;5115676;28;20110;-71
2022/08/07 10:51:22;;;;;;;4.90;3.30;;;;;;;29.02;41.30;99484.44;5115403;28;20027;-70
2022/08/07 10:54:09;;;;;;;7.90;3.40;;;;;;;29.04;41.13;99493.19;5115899;28;20379;-71
2022/08/07 10:57:00;;;;;;;5.97;3.03;;;;;;;29.04;41.10;99493.19;5114734;28;20184;-71
2022/08/07 10:59:51;;;;;;;6.72;3.50;;;;;;;29.05;41.45;99486.66;5110743;28;20047;-71
2022/08/07 11:02:38;;;;;;;4.88;3.88;;;;;;;29.06;40.96;99480.13;5114402;28;20039;-71
2022/08/07 11:05:30;;;;;;;6.63;3.20;;;;;;;29.08;41.31;99481.56;5114867;28;20039;-71
2022/08/07 11:08:09;;;;;;;9.43;3.50;;;;;;;29.08;40.98;99469.81;5115227;28;20104;-72
2022/08/07 11:10:57;;;;;;;7.15;3.88;;;;;;;29.11;40.76;99485.69;5115673;28;20045;-71
2022/08/07 11:13:50;;;;;;;5.32;2.80;;;;;;;29.13;41.04;99483.53;5114654;28;20429;-71
2022/08/07 11:16:32;;;;;;;3.78;2.83;;;;;;;29.13;41.01;99475.38;5114943;28;20494;-71
2022/08/07 11:19:23;;;;;;;4.93;2.63;;;;;;;29.13;40.62;99469.94;5113674;28;20067;-70
2022/08/07 11:22:01;;;;;;;3.85;2.83;;;;;;;29.15;40.42;99473.22;5114412;28;20122;-71
2022/08/07 11:25:07;;;;;;;6.57;3.03;;;;;;;29.16;40.24;99474.91;5114878;28;20034;-72
2022/08/07 11:27:42;;;;;;;5.40;3.17;;;;;;;29.18;40.28;99467.31;5106614;28;20403;-72
2022/08/07 11:30:13;;;;;;;6.22;3.35;;;;;;;29.21;39.94;99479.59;5094436;28;20034;-71
2022/08/07 11:32:46;;;;;;;6.45;2.70;;;;;;;29.22;39.28;99483.97;5094956;28;20035;-71
2022/08/07 11:35:18;;;;;;;8.38;2.30;;;;;;;29.24;38.73;99500.91;5094323;28;20095;-71
2022/08/07 11:37:53;;;;;;;19.80;4.25;;;;;;;29.26;39.48;99503.38;5106086;28;20498;-71
2022/08/07 11:40:21;;;;;;;15.45;4.97;;;;;;;29.19;40.22;99506.25;5114451;28;20031;-71
2022/08/07 11:42:57;;;;;;;16.88;5.25;;;;;;;29.02;41.56;99508.97;5114496;28;20035;-72
2022/08/07 11:45:41;;;;;;;23.55;5.50;;;;;;;28.91;41.65;99513.38;5114457;28;20070;-72
2022/08/07 11:48:16;;;;;;;19.77;4.90;;;;;;;28.86;42.78;99522.28;5114597;28;20063;-71
2022/08/07 11:51:18;;;;;;;17.52;5.18;;;;;;;28.75;42.90;99514.94;5114219;28;20524;-72
2022/08/07 11:54:19;;;;;;;16.00;4.18;;;;;;;28.59;43.38;99513.78;5114651;28;20031;-71
2022/08/07 11:57:08;;;;;;;13.40;4.75;;;;;;;28.50;43.12;99531.56;5114018;28;20083;-71
2022/08/07 12:00:04;;;;;;;8.32;3.80;;;;;;;28.50;43.58;99526.94;5107293;28;20032;-72
2022/08/07 12:02:42;;;;;;;8.35;4.07;;;;;;;28.43;43.70;99532.53;5109553;28;20126;-71
2022/08/07 12:05:27;;;;;;;7.65;3.80;;;;;;;28.31;43.49;99539.88;5114011;28;20074;-72